BOV603 SLLP-SLCB
Flight info
| Callsign | BOV603 |
|---|---|
| Flight time | 0h 32m |
| Altitude | 27000 |
| Route | DAKOG UM793 CBA |
| Aircraft | B738/M-MDGHILORVWY/SB1 |
Departure
| Time | 2026-04-27 11:43 |
|---|---|
| Airport | El Alto International Airport (SLLP) |
Arrival
| Time | 2026-04-27 12:15 |
|---|---|
| Airport | Jorge Wilsterman International Airport (SLCB) |
| Time | Latitude | Longitude | Altitude | Speed | Heading |
|---|---|---|---|---|---|
| 2026-04-27 11:28 | -16.50973 | -68.17690 | 13335 ft | 0 kts | 27° |
| 2026-04-27 11:35 | -16.50989 | -68.17700 | 13334 ft | 4 kts | 40° |
| 2026-04-27 11:35 | -16.51004 | -68.17720 | 13334 ft | 4 kts | 80° |
| 2026-04-27 11:35 | -16.51002 | -68.17740 | 13333 ft | 1 kts | 119° |
| 2026-04-27 11:38 | -16.51003 | -68.17739 | 13335 ft | 1 kts | 119° |
| 2026-04-27 11:39 | -16.51007 | -68.17731 | 13334 ft | 1 kts | 120° |
| 2026-04-27 11:39 | -16.51017 | -68.17713 | 13335 ft | 7 kts | 120° |
| 2026-04-27 11:39 | -16.51046 | -68.17659 | 13335 ft | 10 kts | 120° |
| 2026-04-27 11:39 | -16.51087 | -68.17601 | 13333 ft | 10 kts | 130° |
| 2026-04-27 11:40 | -16.51134 | -68.17545 | 13331 ft | 10 kts | 130° |
| 2026-04-27 11:40 | -16.51178 | -68.17490 | 13329 ft | 10 kts | 130° |
| 2026-04-27 11:40 | -16.51221 | -68.17438 | 13331 ft | 9 kts | 132° |
| 2026-04-27 11:40 | -16.51267 | -68.17388 | 13326 ft | 10 kts | 137° |
| 2026-04-27 11:41 | -16.51337 | -68.17363 | 13325 ft | 11 kts | 173° |
| 2026-04-27 11:41 | -16.51392 | -68.17379 | 13327 ft | 6 kts | 254° |
| 2026-04-27 11:41 | -16.51392 | -68.17392 | 13325 ft | 0 kts | 274° |
| 2026-04-27 11:41 | -16.51392 | -68.17395 | 13326 ft | 0 kts | 274° |
| 2026-04-27 11:42 | -16.51391 | -68.17399 | 13326 ft | 1 kts | 274° |
| 2026-04-27 11:42 | -16.51391 | -68.17405 | 13325 ft | 1 kts | 274° |
| 2026-04-27 11:42 | -16.51388 | -68.17461 | 13323 ft | 31 kts | 272° |
| 2026-04-27 11:42 | -16.51368 | -68.18171 | 13303 ft | 115 kts | 272° |
| 2026-04-27 11:43 | -16.51346 | -68.18824 | 13290 ft | 151 kts | 271° |
| 2026-04-27 11:43 | -16.51307 | -68.20099 | 13221 ft | 202 kts | 271° |
| 2026-04-27 11:43 | -16.51258 | -68.21638 | 13528 ft | 215 kts | 271° |
| 2026-04-27 11:43 | -16.51221 | -68.23209 | 14341 ft | 216 kts | 270° |
| 2026-04-27 11:44 | -16.51243 | -68.24755 | 14994 ft | 216 kts | 271° |
| 2026-04-27 11:44 | -16.51181 | -68.26347 | 15350 ft | 228 kts | 274° |
| 2026-04-27 11:44 | -16.51095 | -68.28087 | 15503 ft | 251 kts | 273° |
| 2026-04-27 11:44 | -16.51015 | -68.29957 | 15638 ft | 272 kts | 271° |
| 2026-04-27 11:45 | -16.51396 | -68.31942 | 15764 ft | 292 kts | 242° |
| 2026-04-27 11:45 | -16.52755 | -68.33525 | 16151 ft | 299 kts | 212° |
| 2026-04-27 11:45 | -16.54719 | -68.34288 | 16671 ft | 304 kts | 186° |
| 2026-04-27 11:45 | -16.56871 | -68.34123 | 16836 ft | 327 kts | 162° |
| 2026-04-27 11:46 | -16.58886 | -68.32977 | 17316 ft | 336 kts | 137° |
| 2026-04-27 11:46 | -16.60325 | -68.31062 | 18052 ft | 338 kts | 118° |
| 2026-04-27 11:46 | -16.61346 | -68.28839 | 18824 ft | 340 kts | 112° |
| 2026-04-27 11:46 | -16.62240 | -68.26542 | 19457 ft | 344 kts | 111° |
| 2026-04-27 11:47 | -16.63130 | -68.24213 | 20077 ft | 348 kts | 112° |
| 2026-04-27 11:47 | -16.64056 | -68.21866 | 20691 ft | 351 kts | 112° |
| 2026-04-27 11:47 | -16.65018 | -68.19514 | 21300 ft | 355 kts | 113° |
| 2026-04-27 11:47 | -16.66013 | -68.17140 | 21881 ft | 359 kts | 114° |
| 2026-04-27 11:48 | -16.67031 | -68.14749 | 22461 ft | 363 kts | 114° |
| 2026-04-27 11:48 | -16.68066 | -68.12337 | 23050 ft | 366 kts | 114° |
| 2026-04-27 11:48 | -16.69115 | -68.09900 | 23613 ft | 369 kts | 115° |
| 2026-04-27 11:48 | -16.70171 | -68.07448 | 24135 ft | 373 kts | 115° |
| 2026-04-27 11:49 | -16.71236 | -68.04974 | 24554 ft | 377 kts | 115° |
| 2026-04-27 11:49 | -16.72318 | -68.02456 | 24988 ft | 380 kts | 115° |
| 2026-04-27 11:49 | -16.73403 | -67.99933 | 25444 ft | 383 kts | 115° |
| 2026-04-27 11:49 | -16.74494 | -67.97382 | 25893 ft | 386 kts | 113° |
| 2026-04-27 11:50 | -16.75389 | -67.94719 | 26311 ft | 390 kts | 107° |
| 2026-04-27 11:50 | -16.76089 | -67.91979 | 26732 ft | 394 kts | 104° |
| 2026-04-27 11:50 | -16.76723 | -67.89217 | 27165 ft | 397 kts | 104° |
| 2026-04-27 11:50 | -16.77368 | -67.86372 | 27233 ft | 396 kts | 104° |
| 2026-04-27 11:51 | -16.77996 | -67.83663 | 27254 ft | 390 kts | 104° |
| 2026-04-27 11:51 | -16.78651 | -67.80911 | 27254 ft | 387 kts | 104° |
| 2026-04-27 11:51 | -16.79982 | -67.75472 | 27269 ft | 387 kts | 105° |
| 2026-04-27 11:52 | -16.80656 | -67.72750 | 27273 ft | 387 kts | 105° |
| 2026-04-27 11:52 | -16.81334 | -67.70023 | 27268 ft | 388 kts | 105° |
| 2026-04-27 11:52 | -16.82010 | -67.67297 | 27263 ft | 388 kts | 105° |
| 2026-04-27 11:52 | -16.82688 | -67.64566 | 27272 ft | 388 kts | 105° |
| 2026-04-27 11:53 | -16.83365 | -67.61836 | 27267 ft | 389 kts | 105° |
| 2026-04-27 11:53 | -16.84042 | -67.59106 | 27264 ft | 389 kts | 105° |
| 2026-04-27 11:53 | -16.84718 | -67.56377 | 27272 ft | 388 kts | 105° |
| 2026-04-27 11:53 | -16.85393 | -67.53645 | 27277 ft | 389 kts | 105° |
| 2026-04-27 11:54 | -16.86071 | -67.50915 | 27277 ft | 389 kts | 105° |
| 2026-04-27 11:54 | -16.86748 | -67.48179 | 27277 ft | 389 kts | 105° |
| 2026-04-27 11:54 | -16.87420 | -67.45445 | 27277 ft | 389 kts | 105° |
| 2026-04-27 11:54 | -16.88094 | -67.42711 | 27276 ft | 389 kts | 105° |
| 2026-04-27 11:55 | -16.88769 | -67.39972 | 27280 ft | 389 kts | 105° |
| 2026-04-27 11:55 | -16.89445 | -67.37238 | 27282 ft | 389 kts | 105° |
| 2026-04-27 11:55 | -16.90326 | -67.34578 | 27292 ft | 387 kts | 114° |
| 2026-04-27 11:55 | -16.91438 | -67.32015 | 27287 ft | 387 kts | 116° |
| 2026-04-27 11:56 | -16.92592 | -67.29520 | 27291 ft | 387 kts | 116° |
| 2026-04-27 11:56 | -16.93771 | -67.26993 | 27301 ft | 387 kts | 116° |
| 2026-04-27 11:56 | -16.94940 | -67.24464 | 27302 ft | 387 kts | 116° |
| 2026-04-27 11:56 | -16.96097 | -67.21930 | 27305 ft | 387 kts | 116° |
| 2026-04-27 11:57 | -16.97243 | -67.19388 | 27305 ft | 387 kts | 116° |
| 2026-04-27 11:57 | -16.98381 | -67.16841 | 27315 ft | 387 kts | 115° |
| 2026-04-27 11:57 | -16.99511 | -67.14291 | 27313 ft | 387 kts | 115° |
| 2026-04-27 11:57 | -17.00641 | -67.11741 | 27321 ft | 387 kts | 115° |
| 2026-04-27 11:58 | -17.01770 | -67.09191 | 27320 ft | 387 kts | 115° |
| 2026-04-27 11:58 | -17.02897 | -67.06636 | 27328 ft | 387 kts | 115° |
| 2026-04-27 11:58 | -17.04027 | -67.04076 | 27333 ft | 388 kts | 115° |
| 2026-04-27 11:58 | -17.05156 | -67.01518 | 27332 ft | 388 kts | 115° |
| 2026-04-27 11:59 | -17.06289 | -66.98954 | 27333 ft | 389 kts | 115° |
| 2026-04-27 11:59 | -17.07422 | -66.96389 | 27326 ft | 389 kts | 115° |
| 2026-04-27 11:59 | -17.08557 | -66.93818 | 27333 ft | 389 kts | 115° |
| 2026-04-27 11:59 | -17.09692 | -66.91247 | 27340 ft | 389 kts | 115° |
| 2026-04-27 12:00 | -17.10809 | -66.88717 | 27341 ft | 389 kts | 115° |
| 2026-04-27 12:00 | -17.11945 | -66.86147 | 27340 ft | 389 kts | 115° |
| 2026-04-27 12:00 | -17.13079 | -66.83581 | 27343 ft | 389 kts | 115° |
| 2026-04-27 12:00 | -17.14213 | -66.81006 | 27345 ft | 389 kts | 115° |
| 2026-04-27 12:01 | -17.15340 | -66.78447 | 27343 ft | 389 kts | 115° |
| 2026-04-27 12:01 | -17.16473 | -66.75875 | 27351 ft | 388 kts | 115° |
| 2026-04-27 12:01 | -17.17678 | -66.73356 | 27355 ft | 387 kts | 121° |
| 2026-04-27 12:01 | -17.19241 | -66.71074 | 27364 ft | 386 kts | 130° |
| 2026-04-27 12:02 | -17.20949 | -66.68906 | 27203 ft | 388 kts | 130° |
| 2026-04-27 12:02 | -17.22670 | -66.66749 | 26926 ft | 384 kts | 130° |
| 2026-04-27 12:02 | -17.24376 | -66.64609 | 26559 ft | 382 kts | 130° |
| 2026-04-27 12:02 | -17.26075 | -66.62469 | 26203 ft | 380 kts | 130° |
| 2026-04-27 12:03 | -17.27751 | -66.60348 | 25838 ft | 378 kts | 130° |
| 2026-04-27 12:03 | -17.29417 | -66.58231 | 25457 ft | 376 kts | 129° |
| 2026-04-27 12:03 | -17.31072 | -66.56123 | 25069 ft | 375 kts | 129° |
| 2026-04-27 12:03 | -17.32725 | -66.54014 | 24687 ft | 374 kts | 129° |
| 2026-04-27 12:04 | -17.34379 | -66.51906 | 24300 ft | 373 kts | 129° |
| 2026-04-27 12:04 | -17.36023 | -66.49811 | 23921 ft | 373 kts | 129° |
| 2026-04-27 12:04 | -17.37663 | -66.47718 | 23486 ft | 371 kts | 129° |
| 2026-04-27 12:04 | -17.39295 | -66.45631 | 23100 ft | 369 kts | 129° |
| 2026-04-27 12:05 | -17.40915 | -66.43553 | 22703 ft | 367 kts | 129° |
| 2026-04-27 12:05 | -17.42500 | -66.41520 | 22332 ft | 364 kts | 129° |
| 2026-04-27 12:05 | -17.44102 | -66.39471 | 21964 ft | 362 kts | 129° |
| 2026-04-27 12:05 | -17.45692 | -66.37439 | 21604 ft | 360 kts | 129° |
| 2026-04-27 12:06 | -17.47276 | -66.35414 | 21230 ft | 358 kts | 129° |
| 2026-04-27 12:06 | -17.48848 | -66.33403 | 20874 ft | 355 kts | 129° |
| 2026-04-27 12:06 | -17.50410 | -66.31400 | 20510 ft | 353 kts | 129° |
| 2026-04-27 12:06 | -17.51961 | -66.29412 | 20152 ft | 352 kts | 129° |
| 2026-04-27 12:07 | -17.53506 | -66.27431 | 19781 ft | 350 kts | 129° |
| 2026-04-27 12:07 | -17.55042 | -66.25459 | 19415 ft | 349 kts | 129° |
| 2026-04-27 12:07 | -17.56577 | -66.23489 | 19007 ft | 349 kts | 129° |
| 2026-04-27 12:07 | -17.58110 | -66.21520 | 18614 ft | 349 kts | 129° |
| 2026-04-27 12:08 | -17.59641 | -66.19553 | 18185 ft | 347 kts | 129° |
| 2026-04-27 12:08 | -17.61160 | -66.17600 | 17523 ft | 354 kts | 129° |
| 2026-04-27 12:08 | -17.62713 | -66.15604 | 17067 ft | 353 kts | 129° |
| 2026-04-27 12:08 | -17.64261 | -66.13615 | 16671 ft | 350 kts | 129° |
| 2026-04-27 12:09 | -17.65794 | -66.11646 | 16316 ft | 347 kts | 129° |
| 2026-04-27 12:09 | -17.67046 | -66.09530 | 16146 ft | 339 kts | 110° |
| 2026-04-27 12:09 | -17.67453 | -66.07146 | 16022 ft | 329 kts | 88° |
| 2026-04-27 12:09 | -17.67046 | -66.04805 | 15570 ft | 331 kts | 68° |
| 2026-04-27 12:10 | -17.65929 | -66.02716 | 15081 ft | 328 kts | 49° |
| 2026-04-27 12:10 | -17.64314 | -66.01043 | 14606 ft | 326 kts | 41° |
| 2026-04-27 12:10 | -17.62611 | -65.99468 | 14090 ft | 326 kts | 40° |
| 2026-04-27 12:10 | -17.60715 | -65.98216 | 13503 ft | 321 kts | 15° |
| 2026-04-27 12:11 | -17.58558 | -65.98136 | 13189 ft | 306 kts | 345° |
| 2026-04-27 12:11 | -17.56782 | -65.99210 | 12999 ft | 288 kts | 311° |
| 2026-04-27 12:11 | -17.55711 | -66.00874 | 12887 ft | 266 kts | 301° |
| 2026-04-27 12:11 | -17.54746 | -66.02453 | 12743 ft | 248 kts | 305° |
| 2026-04-27 12:12 | -17.53737 | -66.03855 | 12475 ft | 237 kts | 309° |
| 2026-04-27 12:12 | -17.52720 | -66.05164 | 12114 ft | 225 kts | 310° |
| 2026-04-27 12:12 | -17.51749 | -66.06373 | 11781 ft | 214 kts | 310° |
| 2026-04-27 12:12 | -17.50819 | -66.07519 | 11613 ft | 196 kts | 311° |
| 2026-04-27 12:13 | -17.49923 | -66.08580 | 11262 ft | 192 kts | 311° |
| 2026-04-27 12:13 | -17.49051 | -66.09598 | 10899 ft | 186 kts | 311° |
| 2026-04-27 12:13 | -17.48197 | -66.10594 | 10480 ft | 181 kts | 311° |
| 2026-04-27 12:13 | -17.47373 | -66.11556 | 10087 ft | 175 kts | 312° |
| 2026-04-27 12:14 | -17.46568 | -66.12494 | 9649 ft | 171 kts | 313° |
| 2026-04-27 12:14 | -17.45784 | -66.13410 | 9320 ft | 165 kts | 312° |
| 2026-04-27 12:14 | -17.45012 | -66.14310 | 9037 ft | 167 kts | 312° |
| 2026-04-27 12:14 | -17.44231 | -66.15238 | 8771 ft | 173 kts | 311° |
| 2026-04-27 12:15 | -17.43430 | -66.16165 | 8498 ft | 170 kts | 311° |
| 2026-04-27 12:15 | -17.42660 | -66.17075 | 8362 ft | 159 kts | 311° |
| 2026-04-27 12:15 | -17.42011 | -66.17826 | 8362 ft | 118 kts | 312° |
| 2026-04-27 12:15 | -17.41703 | -66.18185 | 8360 ft | 15 kts | 312° |
| 2026-04-27 12:16 | -17.41618 | -66.18208 | 8361 ft | 14 kts | 30° |
| 2026-04-27 12:16 | -17.41548 | -66.18143 | 8360 ft | 13 kts | 43° |
| 2026-04-27 12:16 | -17.41485 | -66.18078 | 8361 ft | 13 kts | 64° |
| 2026-04-27 12:16 | -17.41500 | -66.18011 | 8361 ft | 7 kts | 71° |
| 2026-04-27 12:17 | -17.41467 | -66.17974 | 8361 ft | 4 kts | 42° |
| 2026-04-27 12:17 | -17.41464 | -66.17971 | 8361 ft | 0 kts | 43° |